createdAt,value
2018-10-01T00:00:38.272Z,3.70
2018-10-01T00:03:07.368Z,3.70
2018-10-01T00:05:36.421Z,3.60
2018-10-01T00:08:05.405Z,3.70
2018-10-01T00:10:34.450Z,3.60
2018-10-01T00:13:03.553Z,3.70
2018-10-01T00:15:32.602Z,3.70
2018-10-01T00:18:02.087Z,3.70
2018-10-01T00:20:36.204Z,3.80
2018-10-01T00:23:05.224Z,3.70
2018-10-01T00:25:35.134Z,3.80
2018-10-01T00:28:04.158Z,3.80
2018-10-01T00:30:33.187Z,3.80
2018-10-01T00:33:02.148Z,3.80
2018-10-01T00:35:31.080Z,3.80
2018-10-01T00:38:00.141Z,3.70
2018-10-01T00:40:29.150Z,3.70
2018-10-01T00:42:58.142Z,3.70
2018-10-01T00:45:27.167Z,3.80
2018-10-01T00:47:56.221Z,3.70
2018-10-01T00:50:25.197Z,3.70
2018-10-01T00:52:54.142Z,3.70
2018-10-01T00:55:23.236Z,3.60
2018-10-01T00:57:52.284Z,3.60
2018-10-01T01:00:21.326Z,3.60
2018-10-01T01:02:50.321Z,3.50
2018-10-01T01:05:19.331Z,3.40
2018-10-01T01:07:48.353Z,3.40
2018-10-01T01:10:17.319Z,3.40
2018-10-01T01:12:46.290Z,3.40
2018-10-01T01:15:15.339Z,3.40
2018-10-01T01:17:44.353Z,3.40
2018-10-01T01:20:13.438Z,3.40
2018-10-01T01:22:42.499Z,3.40
2018-10-01T01:25:11.509Z,3.50
2018-10-01T01:27:40.594Z,3.50
2018-10-01T01:30:09.669Z,3.60
2018-10-01T01:32:38.734Z,3.50
2018-10-01T01:35:07.790Z,3.50
2018-10-01T01:37:36.769Z,3.50
2018-10-01T01:40:06.258Z,3.40
2018-10-01T01:42:36.309Z,3.40
2018-10-01T01:45:05.352Z,3.40
2018-10-01T01:47:34.294Z,3.40
2018-10-01T01:50:03.300Z,3.40
2018-10-01T01:52:32.241Z,3.40
2018-10-01T01:55:01.219Z,3.40
2018-10-01T01:57:30.183Z,3.40
2018-10-01T01:59:59.188Z,3.40
2018-10-01T02:02:28.201Z,3.50
2018-10-01T02:04:57.220Z,3.40
2018-10-01T02:07:26.233Z,3.40
2018-10-01T02:09:55.233Z,3.40
2018-10-01T02:12:24.247Z,3.50
2018-10-01T02:14:53.241Z,3.50
2018-10-01T02:17:22.209Z,3.50
2018-10-01T02:19:51.257Z,3.40
2018-10-01T02:22:20.244Z,3.40
2018-10-01T02:24:49.188Z,3.40
2018-10-01T02:27:18.157Z,3.40
2018-10-01T02:29:47.176Z,3.40
2018-10-01T02:32:16.118Z,3.40
2018-10-01T02:34:45.186Z,3.40
2018-10-01T02:37:14.177Z,3.30
2018-10-01T02:39:43.208Z,3.40
2018-10-01T02:42:12.269Z,3.30
2018-10-01T02:44:41.242Z,3.30
2018-10-01T02:47:10.265Z,3.30
2018-10-01T02:49:39.241Z,3.30
2018-10-01T02:52:13.481Z,3.20
2018-10-01T02:54:42.481Z,3.20
2018-10-01T02:57:11.506Z,3.20
2018-10-01T02:59:40.576Z,3.20
2018-10-01T03:02:09.567Z,3.20
2018-10-01T03:04:38.608Z,3.30
2018-10-01T03:07:07.576Z,3.20
2018-10-01T03:09:36.545Z,3.30
2018-10-01T03:12:05.661Z,3.20
2018-10-01T03:14:34.599Z,3.20
2018-10-01T03:17:03.563Z,3.20
2018-10-01T03:19:32.647Z,3.20
2018-10-01T03:22:01.610Z,3.20
2018-10-01T03:24:30.613Z,3.20
2018-10-01T03:26:59.606Z,3.20
2018-10-01T03:29:28.604Z,3.20
2018-10-01T03:31:57.595Z,3.20
2018-10-01T03:34:26.528Z,3.20
2018-10-01T03:36:55.469Z,3.10
2018-10-01T03:39:24.459Z,3.10
2018-10-01T03:41:53.444Z,3.10
2018-10-01T03:44:22.354Z,3.10
2018-10-01T03:46:51.293Z,3.10
2018-10-01T03:49:20.205Z,3.10
2018-10-01T03:51:49.206Z,3.00
2018-10-01T03:54:18.134Z,3.00
2018-10-01T03:56:47.109Z,3.00
2018-10-01T03:59:16.000Z,3.00
2018-10-01T04:01:44.884Z,3.00
2018-10-01T04:04:13.906Z,3.00
2018-10-01T04:06:43.004Z,3.00
2018-10-01T04:09:11.878Z,2.90
2018-10-01T04:11:40.865Z,2.90
2018-10-01T04:14:09.762Z,2.80
2018-10-01T04:16:38.663Z,2.90
2018-10-01T04:19:07.696Z,2.90
2018-10-01T04:21:36.665Z,2.90
2018-10-01T04:24:05.652Z,2.90
2018-10-01T04:26:34.567Z,2.90
2018-10-01T04:29:04.018Z,2.90
2018-10-01T04:31:32.961Z,3.00
2018-10-01T04:34:01.870Z,3.00
2018-10-01T04:36:30.788Z,3.00
2018-10-01T04:39:00.099Z,3.00
2018-10-01T04:41:29.242Z,3.00
2018-10-01T04:43:58.439Z,3.00
2018-10-01T04:46:27.635Z,2.90
2018-10-01T04:48:56.813Z,3.00
2018-10-01T04:51:25.956Z,3.00
2018-10-01T04:53:55.129Z,3.00
2018-10-01T04:56:24.408Z,3.10
2018-10-01T04:58:53.648Z,3.20
2018-10-01T05:01:22.953Z,3.20
2018-10-01T05:03:52.253Z,3.10
2018-10-01T05:06:21.524Z,3.10
2018-10-01T05:08:50.807Z,3.10
2018-10-01T05:11:20.103Z,3.20
2018-10-01T05:13:49.353Z,3.20
2018-10-01T05:16:18.765Z,3.20
2018-10-01T05:18:47.977Z,3.20
2018-10-01T05:21:17.168Z,3.20
2018-10-01T05:23:46.369Z,3.30
2018-10-01T05:26:15.675Z,3.30
2018-10-01T05:28:44.933Z,3.30
2018-10-01T05:31:14.144Z,3.40
2018-10-01T05:33:43.464Z,3.50
2018-10-01T05:36:12.676Z,3.50
2018-10-01T05:38:42.072Z,3.60
2018-10-01T05:41:11.335Z,3.60
2018-10-01T05:43:40.520Z,3.60
2018-10-01T05:46:09.727Z,3.70
2018-10-01T05:48:38.920Z,3.70
2018-10-01T05:51:08.091Z,3.80
2018-10-01T05:53:37.437Z,3.90
2018-10-01T05:56:06.769Z,3.90
2018-10-01T05:58:36.580Z,4.00
2018-10-01T06:01:05.881Z,4.10
2018-10-01T06:03:35.239Z,4.20
2018-10-01T06:06:04.453Z,4.30
2018-10-01T06:08:33.732Z,4.40
2018-10-01T06:11:02.936Z,4.60
2018-10-01T06:13:32.176Z,4.80
2018-10-01T06:16:01.394Z,4.90
2018-10-01T06:18:30.604Z,5.00
2018-10-01T06:20:59.784Z,5.10
2018-10-01T06:23:28.985Z,5.30
2018-10-01T06:25:58.268Z,5.50
2018-10-01T06:28:27.568Z,5.70
2018-10-01T06:30:56.713Z,5.80
2018-10-01T06:33:26.149Z,5.90
2018-10-01T06:35:55.381Z,6.00
2018-10-01T06:38:24.668Z,6.10
2018-10-01T06:40:54.005Z,6.20
2018-10-01T06:43:25.620Z,6.30
2018-10-01T06:45:54.938Z,6.50
2018-10-01T06:48:24.223Z,6.50
2018-10-01T06:50:53.444Z,6.60
2018-10-01T06:53:22.725Z,6.80
2018-10-01T06:55:51.948Z,6.90
2018-10-01T06:58:21.173Z,7.00
2018-10-01T07:00:50.374Z,7.10
2018-10-01T07:03:19.558Z,7.20
2018-10-01T07:05:48.932Z,7.30
2018-10-01T07:08:18.016Z,7.50
2018-10-01T07:10:47.371Z,7.60
2018-10-01T07:13:16.891Z,7.70
2018-10-01T07:15:46.236Z,7.90
2018-10-01T07:18:15.668Z,8.00
2018-10-01T07:20:44.850Z,8.20
2018-10-01T07:23:14.245Z,8.30
2018-10-01T07:25:43.608Z,8.50
2018-10-01T07:28:12.853Z,8.70
2018-10-01T07:30:42.069Z,8.80
2018-10-01T07:33:11.466Z,9.00
2018-10-01T07:35:40.851Z,9.20
2018-10-01T07:38:10.191Z,9.40
2018-10-01T07:40:39.950Z,9.50
2018-10-01T07:43:09.219Z,9.70
2018-10-01T07:45:38.443Z,9.90
2018-10-01T07:48:07.792Z,10.10
2018-10-01T07:50:37.747Z,10.30
2018-10-01T07:53:07.103Z,10.40
2018-10-01T07:55:36.274Z,10.50
2018-10-01T07:58:05.587Z,10.60
2018-10-01T08:00:34.785Z,10.80
2018-10-01T08:03:03.983Z,10.90
2018-10-01T08:05:33.227Z,11.10
2018-10-01T08:08:02.452Z,11.20
2018-10-01T08:10:31.709Z,11.40
2018-10-01T08:13:00.965Z,11.60
2018-10-01T08:15:30.634Z,11.80
2018-10-01T08:18:00.519Z,11.90
2018-10-01T08:20:30.255Z,12.00
2018-10-01T08:22:59.436Z,12.20
2018-10-01T08:25:28.635Z,12.30
2018-10-01T08:27:57.818Z,12.50
2018-10-01T08:30:27.091Z,12.60
2018-10-01T08:32:56.383Z,12.70
2018-10-01T08:35:25.594Z,12.70
2018-10-01T08:37:55.020Z,12.80
2018-10-01T08:40:24.340Z,13.00
2018-10-01T08:42:53.675Z,13.10
2018-10-01T08:45:22.849Z,13.20
2018-10-01T08:47:52.006Z,13.30
2018-10-01T08:50:24.630Z,13.40
2018-10-01T08:52:58.449Z,13.60
2018-10-01T08:55:27.762Z,13.80
2018-10-01T08:57:56.874Z,13.90
2018-10-01T09:00:26.051Z,14.00
2018-10-01T09:02:55.181Z,14.10
2018-10-01T09:05:24.272Z,14.10
2018-10-01T09:07:53.550Z,14.10
2018-10-01T09:10:22.692Z,14.20
2018-10-01T09:12:51.800Z,14.20
2018-10-01T09:15:20.947Z,14.30
2018-10-01T09:17:50.200Z,14.40
2018-10-01T09:20:19.515Z,14.50
2018-10-01T09:22:48.623Z,14.60
2018-10-01T09:25:17.799Z,14.70
2018-10-01T09:27:47.039Z,14.70
2018-10-01T09:30:16.161Z,14.80
2018-10-01T09:32:45.301Z,14.80
2018-10-01T09:35:14.600Z,14.90
2018-10-01T09:37:43.713Z,15.00
2018-10-01T09:40:12.967Z,15.00
2018-10-01T09:42:43.114Z,15.00
2018-10-01T09:45:12.223Z,15.00
2018-10-01T09:47:41.322Z,15.10
2018-10-01T09:50:10.579Z,15.10
2018-10-01T09:52:39.739Z,15.10
2018-10-01T09:55:08.875Z,15.20
2018-10-01T09:57:38.068Z,15.20
2018-10-01T10:00:08.153Z,15.30
2018-10-01T10:02:37.372Z,15.40
2018-10-01T10:05:07.299Z,15.40
2018-10-01T10:07:36.423Z,15.40
2018-10-01T10:10:05.629Z,15.40
2018-10-01T10:12:34.764Z,15.50
2018-10-01T10:15:04.004Z,15.50
2018-10-01T10:17:33.164Z,15.50
2018-10-01T10:20:02.458Z,15.50
2018-10-01T10:22:32.142Z,15.60
2018-10-01T10:25:01.207Z,15.60
2018-10-01T10:27:30.458Z,15.70
2018-10-01T10:29:59.656Z,15.70
2018-10-01T10:32:28.844Z,15.70
2018-10-01T10:34:57.980Z,15.70
2018-10-01T10:37:27.143Z,15.70
2018-10-01T10:39:56.268Z,15.70
2018-10-01T10:42:25.440Z,15.80
2018-10-01T10:44:54.632Z,15.70
2018-10-01T10:47:23.801Z,15.80
2018-10-01T10:49:52.945Z,15.70
2018-10-01T10:52:22.214Z,15.80
2018-10-01T10:54:51.410Z,15.80
2018-10-01T10:57:20.520Z,15.80
2018-10-01T10:59:49.725Z,16.00
2018-10-01T11:02:19.232Z,16.00
2018-10-01T11:04:48.376Z,16.10
2018-10-01T11:07:17.642Z,16.20
2018-10-01T11:09:46.771Z,16.20
2018-10-01T11:12:15.914Z,16.20
2018-10-01T11:14:46.239Z,16.20
2018-10-01T11:17:15.361Z,16.30
2018-10-01T11:19:44.655Z,16.20
2018-10-01T11:22:13.850Z,16.20
2018-10-01T11:24:42.991Z,16.20
2018-10-01T11:27:12.296Z,16.20
2018-10-01T11:29:41.390Z,16.30
2018-10-01T11:32:10.546Z,16.30
2018-10-01T11:34:39.879Z,16.40
2018-10-01T11:37:09.828Z,16.40
2018-10-01T11:39:39.112Z,16.40
2018-10-01T11:42:08.322Z,16.50
2018-10-01T11:44:37.462Z,16.50
2018-10-01T11:47:06.560Z,16.50
2018-10-01T11:49:35.760Z,16.50
2018-10-01T11:52:04.932Z,16.50
2018-10-01T11:54:34.109Z,16.50
2018-10-01T11:57:03.368Z,16.50
2018-10-01T11:59:33.733Z,16.50
2018-10-01T12:02:03.115Z,16.40
2018-10-01T12:04:32.235Z,16.40
2018-10-01T12:07:01.451Z,16.40
2018-10-01T12:09:30.712Z,16.50
2018-10-01T12:11:59.775Z,16.50
2018-10-01T12:14:29.122Z,16.50
2018-10-01T12:16:58.466Z,16.50
2018-10-01T12:19:27.570Z,16.50
2018-10-01T12:21:56.744Z,16.50
2018-10-01T12:24:25.968Z,16.50
2018-10-01T12:26:55.255Z,16.60
2018-10-01T12:29:24.668Z,16.60
2018-10-01T12:31:53.887Z,16.70
2018-10-01T12:34:23.092Z,16.70
2018-10-01T12:36:52.172Z,16.60
2018-10-01T12:39:21.967Z,16.50
2018-10-01T12:41:51.081Z,16.40
2018-10-01T12:44:20.169Z,16.50
2018-10-01T12:46:49.360Z,16.50
2018-10-01T12:49:18.466Z,16.50
2018-10-01T12:51:47.725Z,16.40
2018-10-01T12:54:16.856Z,16.40
2018-10-01T12:56:45.917Z,16.50
2018-10-01T12:59:15.053Z,16.70
2018-10-01T13:01:44.304Z,17.00
2018-10-01T13:04:13.428Z,17.00
2018-10-01T13:06:42.556Z,17.00
2018-10-01T13:09:12.935Z,16.80
2018-10-01T13:11:42.305Z,16.80
2018-10-01T13:14:11.421Z,16.70
2018-10-01T13:16:40.774Z,16.80
2018-10-01T13:19:10.019Z,16.90
2018-10-01T13:21:39.244Z,17.00
2018-10-01T13:24:08.584Z,17.20
2018-10-01T13:26:37.964Z,17.40
2018-10-01T13:29:07.218Z,17.50
2018-10-01T13:31:36.425Z,17.50
2018-10-01T13:34:05.540Z,17.60
2018-10-01T13:36:34.790Z,17.60
2018-10-01T13:39:05.376Z,17.60
2018-10-01T13:41:34.634Z,17.50
2018-10-01T13:44:03.784Z,17.30
2018-10-01T13:46:32.858Z,17.10
2018-10-01T13:49:02.337Z,16.90
2018-10-01T13:54:19.431Z,16.90
2018-10-01T13:56:48.495Z,17.10
2018-10-01T13:59:17.583Z,17.20
2018-10-01T14:01:46.801Z,17.50
2018-10-01T14:04:15.946Z,17.60
2018-10-01T14:06:45.098Z,17.70
2018-10-01T14:09:14.237Z,17.80
2018-10-01T14:11:43.428Z,17.80
2018-10-01T14:14:12.539Z,17.80
2018-10-01T14:16:41.746Z,17.70
2018-10-01T14:19:10.854Z,17.50
2018-10-01T14:21:40.344Z,17.30
2018-10-01T14:24:09.531Z,17.00
2018-10-01T14:26:38.721Z,16.80
2018-10-01T14:29:07.811Z,16.50
2018-10-01T14:31:37.001Z,16.20
2018-10-01T14:34:06.145Z,16.00
2018-10-01T14:36:35.330Z,15.80
2018-10-01T14:39:04.855Z,15.50
2018-10-01T14:41:34.022Z,15.30
2018-10-01T14:44:03.218Z,15.10
2018-10-01T14:46:32.434Z,15.00
2018-10-01T14:49:06.735Z,14.90
2018-10-01T14:51:37.205Z,14.70
2018-10-01T14:54:06.478Z,14.70
2018-10-01T14:56:35.731Z,14.60
2018-10-01T14:59:04.961Z,14.50
2018-10-01T15:01:34.176Z,14.40
2018-10-01T15:04:03.520Z,14.40
2018-10-01T15:06:32.976Z,14.40
2018-10-01T15:09:02.380Z,14.30
2018-10-01T15:11:34.441Z,14.30
2018-10-01T15:14:03.762Z,14.30
2018-10-01T15:16:32.986Z,14.20
2018-10-01T15:19:03.151Z,14.20
2018-10-01T15:21:33.013Z,14.10
2018-10-01T15:24:02.239Z,14.00
2018-10-01T15:26:31.492Z,14.00
2018-10-01T15:29:00.688Z,13.90
2018-10-01T15:31:29.849Z,13.80
2018-10-01T15:33:59.053Z,13.70
2018-10-01T15:36:28.343Z,13.60
2018-10-01T15:38:57.480Z,13.50
2018-10-01T15:41:26.829Z,13.40
2018-10-01T15:43:55.992Z,13.30
2018-10-01T15:46:25.243Z,13.20
2018-10-01T15:48:54.488Z,13.10
2018-10-01T15:51:23.711Z,13.00
2018-10-01T15:53:52.999Z,12.90
2018-10-01T15:56:22.282Z,12.70
2018-10-01T15:58:51.716Z,12.70
2018-10-01T16:01:20.946Z,12.50
2018-10-01T16:03:50.223Z,12.40
2018-10-01T16:06:19.389Z,12.30
2018-10-01T16:08:48.555Z,12.30
2018-10-01T16:11:17.898Z,12.10
2018-10-01T16:13:47.091Z,11.90
2018-10-01T16:16:16.568Z,11.80
2018-10-01T16:18:45.789Z,11.60
2018-10-01T16:21:14.965Z,11.50
2018-10-01T16:23:46.980Z,11.40
2018-10-01T16:26:16.242Z,11.30
2018-10-01T16:28:45.432Z,11.20
2018-10-01T16:31:14.662Z,11.00
2018-10-01T16:33:43.898Z,10.90
2018-10-01T16:36:13.211Z,10.80
2018-10-01T16:38:42.609Z,10.70
2018-10-01T16:41:11.946Z,10.60
2018-10-01T16:43:41.253Z,10.40
2018-10-01T16:46:10.377Z,10.30
2018-10-01T16:48:39.666Z,10.20
2018-10-01T16:51:09.069Z,10.10
2018-10-01T16:53:38.281Z,10.00
2018-10-01T16:56:07.430Z,9.80
2018-10-01T16:58:36.689Z,9.70
2018-10-01T17:01:06.078Z,9.60
2018-10-01T17:03:36.247Z,9.60
2018-10-01T17:06:05.455Z,9.50
2018-10-01T17:08:36.522Z,9.40
2018-10-01T17:11:05.839Z,9.30
2018-10-01T17:13:35.137Z,9.20
2018-10-01T17:16:04.285Z,9.10
2018-10-01T17:18:33.433Z,9.00
2018-10-01T17:21:03.673Z,8.90
2018-10-01T17:23:32.836Z,8.90
2018-10-01T17:26:01.979Z,8.70
2018-10-01T17:28:31.316Z,8.70
2018-10-01T17:31:01.430Z,8.60
2018-10-01T17:33:31.537Z,8.50
2018-10-01T17:36:00.809Z,8.40
2018-10-01T17:38:31.013Z,8.40
2018-10-01T17:41:00.757Z,8.30
2018-10-01T17:43:29.887Z,8.20
2018-10-01T17:45:59.113Z,8.20
2018-10-01T17:48:28.287Z,8.10
2018-10-01T17:50:58.357Z,8.10
2018-10-01T17:53:27.567Z,8.00
2018-10-01T17:55:56.764Z,7.90
2018-10-01T17:58:25.999Z,7.90
2018-10-01T18:00:55.227Z,7.80
2018-10-01T18:03:25.317Z,7.80
2018-10-01T18:05:55.661Z,7.70
2018-10-01T18:08:24.821Z,7.60
2018-10-01T18:10:54.036Z,7.50
2018-10-01T18:13:23.363Z,7.50
2018-10-01T18:15:52.521Z,7.40
2018-10-01T18:18:21.808Z,7.40
2018-10-01T18:20:50.964Z,7.30
2018-10-01T18:23:20.132Z,7.30
2018-10-01T18:25:49.347Z,7.20
2018-10-01T18:28:18.505Z,7.20
2018-10-01T18:30:47.652Z,7.10
2018-10-01T18:33:16.839Z,7.10
2018-10-01T18:35:46.851Z,7.00
2018-10-01T18:38:16.007Z,7.00
2018-10-01T18:40:45.223Z,6.90
2018-10-01T18:43:14.373Z,6.80
2018-10-01T18:45:43.575Z,6.80
2018-10-01T18:48:12.737Z,6.80
2018-10-01T18:50:41.995Z,6.70
2018-10-01T18:53:11.149Z,6.70
2018-10-01T18:55:40.835Z,6.70
2018-10-01T18:58:10.163Z,6.60
2018-10-01T19:00:39.400Z,6.60
2018-10-01T19:03:08.656Z,6.60
2018-10-01T19:05:37.932Z,6.60
2018-10-01T19:08:07.187Z,6.50
2018-10-01T19:10:36.445Z,6.50
2018-10-01T19:13:05.703Z,6.50
2018-10-01T19:15:34.896Z,6.50
2018-10-01T19:18:05.072Z,6.50
2018-10-01T19:20:34.567Z,6.50
2018-10-01T19:23:04.347Z,6.40
2018-10-01T19:25:33.525Z,6.50
2018-10-01T19:28:02.745Z,6.40
2018-10-01T19:30:32.382Z,6.40
2018-10-01T19:33:01.738Z,6.40
2018-10-01T19:35:30.763Z,6.40
2018-10-01T19:37:59.931Z,6.40
2018-10-01T19:40:29.177Z,6.30
2018-10-01T19:42:58.416Z,6.30
2018-10-01T19:45:27.667Z,6.30
2018-10-01T19:47:56.867Z,6.30
2018-10-01T19:50:26.010Z,6.30
2018-10-01T19:52:55.194Z,6.30
2018-10-01T19:55:24.380Z,6.30
2018-10-01T19:57:53.563Z,6.20
2018-10-01T20:00:22.790Z,6.10
2018-10-01T20:02:52.088Z,6.10
2018-10-01T20:05:21.297Z,6.10
2018-10-01T20:07:50.442Z,6.10
2018-10-01T20:10:19.601Z,6.10
2018-10-01T20:12:48.760Z,6.00
2018-10-01T20:15:17.979Z,6.00
2018-10-01T20:17:47.812Z,6.00
2018-10-01T20:20:17.000Z,5.90
2018-10-01T20:22:46.238Z,5.90
2018-10-01T20:25:15.408Z,5.90
2018-10-01T20:27:44.702Z,5.80
2018-10-01T20:30:13.947Z,5.80
2018-10-01T20:32:43.120Z,5.80
2018-10-01T20:35:12.663Z,5.70
2018-10-01T20:37:41.822Z,5.70
2018-10-01T20:40:11.154Z,5.60
2018-10-01T20:42:40.419Z,5.70
2018-10-01T20:45:09.692Z,5.60
2018-10-01T20:47:38.904Z,5.60
2018-10-01T20:50:08.129Z,5.60
2018-10-01T20:52:37.357Z,5.50
2018-10-01T20:55:06.581Z,5.50
2018-10-01T20:57:35.877Z,5.50
2018-10-01T21:00:05.151Z,5.40
2018-10-01T21:02:35.128Z,5.40
2018-10-01T21:05:04.344Z,5.40
2018-10-01T21:07:33.499Z,5.40
2018-10-01T21:10:02.687Z,5.50
2018-10-01T21:12:32.400Z,5.50
2018-10-01T21:15:01.624Z,5.50
2018-10-01T21:17:30.789Z,5.40
2018-10-01T21:19:59.972Z,5.40
2018-10-01T21:22:30.248Z,5.40
2018-10-01T21:24:59.455Z,5.30
2018-10-01T21:27:28.619Z,5.30
2018-10-01T21:29:57.727Z,5.30
2018-10-01T21:32:26.949Z,5.30
2018-10-01T21:34:56.140Z,5.20
2018-10-01T21:37:25.292Z,5.20
2018-10-01T21:39:59.304Z,5.10
2018-10-01T21:42:28.855Z,5.10
2018-10-01T21:44:58.661Z,5.10
2018-10-01T21:47:28.687Z,5.10
2018-10-01T21:49:57.877Z,5.10
2018-10-01T21:52:27.923Z,5.20
2018-10-01T21:54:57.547Z,5.20
2018-10-01T21:57:26.830Z,5.20
2018-10-01T21:59:55.985Z,5.30
2018-10-01T22:02:25.344Z,5.30
2018-10-01T22:04:54.597Z,5.20
2018-10-01T22:07:23.768Z,5.20
2018-10-01T22:09:52.902Z,5.10
2018-10-01T22:12:22.117Z,5.20
2018-10-01T22:14:51.266Z,5.20
2018-10-01T22:17:20.455Z,5.20
2018-10-01T22:19:49.658Z,5.20
2018-10-01T22:22:18.964Z,5.30
2018-10-01T22:24:48.146Z,5.40
2018-10-01T22:27:17.319Z,5.40
2018-10-01T22:29:46.668Z,5.60
2018-10-01T22:32:15.797Z,5.70
2018-10-01T22:34:44.969Z,5.80
2018-10-01T22:37:14.165Z,5.90
2018-10-01T22:39:43.327Z,6.00
2018-10-01T22:42:12.532Z,6.10
2018-10-01T22:44:41.735Z,6.20
2018-10-01T22:47:10.929Z,6.20
2018-10-01T22:49:40.111Z,6.30
2018-10-01T22:52:09.426Z,6.30
2018-10-01T22:54:38.591Z,6.30
2018-10-01T22:57:07.720Z,6.40
2018-10-01T22:59:36.921Z,6.40
2018-10-01T23:02:06.111Z,6.50
2018-10-01T23:04:35.250Z,6.50
2018-10-01T23:07:04.450Z,6.60
2018-10-01T23:09:33.643Z,6.60
2018-10-01T23:12:02.813Z,6.70
2018-10-01T23:14:32.014Z,6.80
2018-10-01T23:17:01.204Z,6.90
2018-10-01T23:19:30.423Z,7.00
2018-10-01T23:21:59.575Z,7.00
2018-10-01T23:24:28.839Z,7.10
2018-10-01T23:26:58.059Z,7.20
2018-10-01T23:29:27.195Z,7.30
2018-10-01T23:31:56.334Z,7.30
2018-10-01T23:34:25.593Z,7.40
2018-10-01T23:36:54.731Z,7.40
2018-10-01T23:39:23.950Z,7.50
2018-10-01T23:41:53.176Z,7.50
2018-10-01T23:44:22.331Z,7.60
2018-10-01T23:46:51.467Z,7.60
2018-10-01T23:49:23.927Z,7.60
2018-10-01T23:51:53.085Z,7.60
2018-10-01T23:54:22.232Z,7.70
2018-10-01T23:56:51.431Z,7.70
2018-10-01T23:59:20.576Z,7.70
